UASP 152200Z 35004MPS CAVOK 19/17 Q1010 NOSIG RMK QFE746/0995
QNH:(hPa/inHg/mmHg)1010 / 29.83 / 758
QFE:(hPa/inHg/mmHg)995 / 29.38 / 746
Temperature19
Dew Point17
Visibility> 10000
WeatherCAVOK
Cloud Cover
Transition Altitude10000 ft.
Transition LevelFL120
SQUAWK